createdAt,value
2024-05-09T00:02:23.308Z,13.35
2024-05-09T00:04:55.655Z,13.95
2024-05-09T00:07:25.262Z,12.10
2024-05-09T00:09:54.780Z,13.18
2024-05-09T00:12:24.386Z,12.70
2024-05-09T00:14:54.026Z,15.23
2024-05-09T00:17:23.698Z,13.30
2024-05-09T00:19:55.934Z,11.32
2024-05-09T00:22:25.484Z,12.57
2024-05-09T00:24:55.015Z,12.23
2024-05-09T00:27:25.398Z,12.05
2024-05-09T00:29:57.378Z,14.20
2024-05-09T00:32:27.021Z,11.65
2024-05-09T00:34:59.320Z,11.15
2024-05-09T00:37:28.875Z,11.93
2024-05-09T00:39:58.351Z,11.20
2024-05-09T00:42:27.889Z,14.27
2024-05-09T00:44:57.458Z,13.40
2024-05-09T00:47:27.409Z,11.77
2024-05-09T00:49:59.704Z,15.48
2024-05-09T00:52:30.400Z,9.88
2024-05-09T00:55:00.414Z,10.77
2024-05-09T00:57:30.544Z,11.27
2024-05-09T01:00:00.103Z,11.25
2024-05-09T01:02:29.900Z,15.57
2024-05-09T01:05:02.306Z,11.32
2024-05-09T01:07:32.022Z,13.85
2024-05-09T01:10:01.537Z,11.57
2024-05-09T01:12:31.159Z,11.25
2024-05-09T01:15:00.793Z,11.63
2024-05-09T01:17:30.626Z,11.60
2024-05-09T01:20:04.240Z,13.43
2024-05-09T01:22:38.486Z,12.60
2024-05-09T01:25:10.815Z,12.57
2024-05-09T01:27:40.375Z,10.93
2024-05-09T01:30:17.184Z,10.30
2024-05-09T01:32:50.975Z,10.95
2024-05-09T01:35:23.510Z,11.52
2024-05-09T01:37:53.679Z,12.77
2024-05-09T01:40:36.116Z,11.45
2024-05-09T01:43:10.201Z,10.75
2024-05-09T01:45:41.451Z,9.80
2024-05-09T01:48:11.900Z,9.88
2024-05-09T01:50:43.152Z,10.20
2024-05-09T01:53:15.035Z,7.40
2024-05-09T01:55:47.680Z,8.95
2024-05-09T01:58:17.211Z,7.70
2024-05-09T02:00:46.952Z,6.90
2024-05-09T02:03:17.806Z,6.43
2024-05-09T02:05:49.508Z,6.93
2024-05-09T02:08:21.695Z,5.35
2024-05-09T02:10:54.412Z,7.85
2024-05-09T02:13:24.031Z,5.38
2024-05-09T02:15:53.884Z,4.93
2024-05-09T02:18:23.827Z,4.38
2024-05-09T02:20:53.593Z,4.68
2024-05-09T02:23:23.211Z,5.63
2024-05-09T02:25:55.509Z,4.82
2024-05-09T02:28:25.081Z,4.68
2024-05-09T02:30:54.644Z,3.75
2024-05-09T02:33:21.954Z,4.25
2024-05-09T02:35:51.658Z,3.97
2024-05-09T02:38:18.724Z,12.65
2024-05-09T02:40:48.343Z,4.25
2024-05-09T02:43:17.931Z,3.72
2024-05-09T02:45:47.461Z,4.35
2024-05-09T02:48:14.606Z,3.50
2024-05-09T02:50:44.923Z,3.67
2024-05-09T02:53:12.526Z,3.60
2024-05-09T02:55:43.505Z,3.25
2024-05-09T02:58:11.181Z,3.80
2024-05-09T03:00:43.442Z,3.58
2024-05-09T03:03:13.150Z,4.45
2024-05-09T03:05:45.134Z,3.90
2024-05-09T03:08:12.757Z,9.65
2024-05-09T03:10:42.896Z,6.60
2024-05-09T03:13:12.213Z,7.88
2024-05-09T03:15:45.700Z,30.08
2024-05-09T03:18:13.323Z,48.88
2024-05-09T03:20:44.238Z,30.00
2024-05-09T03:23:11.665Z,8.90
2024-05-09T03:25:41.241Z,18.73
2024-05-09T03:28:08.208Z,43.78
2024-05-09T03:30:41.919Z,19.75
2024-05-09T03:33:15.441Z,11.18
2024-05-09T03:35:46.182Z,12.90
2024-05-09T03:38:15.982Z,25.88
2024-05-09T03:40:50.538Z,27.40
2024-05-09T03:43:18.459Z,5.45
2024-05-09T03:45:48.457Z,11.68
2024-05-09T03:48:18.320Z,10.02
2024-05-09T03:50:48.196Z,9.82
2024-05-09T03:53:15.744Z,6.22
2024-05-09T03:55:45.556Z,12.55
2024-05-09T03:58:15.045Z,13.15
2024-05-09T04:00:44.799Z,32.25
2024-05-09T04:03:13.182Z,43.95
2024-05-09T04:05:46.105Z,29.45
2024-05-09T04:08:14.452Z,13.27
2024-05-09T04:10:44.443Z,10.80
2024-05-09T04:13:11.495Z,5.05
2024-05-09T04:15:41.209Z,16.75
2024-05-09T04:18:08.743Z,4.90
2024-05-09T04:20:40.587Z,9.00
2024-05-09T04:23:12.262Z,6.07
2024-05-09T04:25:45.053Z,4.38
2024-05-09T04:28:12.844Z,4.28
2024-05-09T04:30:43.118Z,5.70
2024-05-09T04:33:12.562Z,5.50
2024-05-09T04:35:44.972Z,5.03
2024-05-09T04:38:15.729Z,5.43
2024-05-09T04:40:46.019Z,6.40
2024-05-09T04:43:19.061Z,5.07
2024-05-09T04:45:48.968Z,4.82
2024-05-09T04:48:16.799Z,5.13
2024-05-09T04:50:46.795Z,3.97
2024-05-09T04:53:18.158Z,4.07
2024-05-09T04:55:47.917Z,4.68
2024-05-09T04:58:14.966Z,3.80
2024-05-09T05:00:44.625Z,4.95
2024-05-09T05:03:14.642Z,4.88
2024-05-09T05:05:46.473Z,4.95
2024-05-09T05:08:14.332Z,5.50
2024-05-09T05:10:48.140Z,8.75
2024-05-09T05:13:17.693Z,7.78
2024-05-09T05:15:48.473Z,15.80
2024-05-09T05:18:16.133Z,9.35
2024-05-09T05:20:46.315Z,10.25
2024-05-09T05:23:15.151Z,12.82
2024-05-09T05:25:48.653Z,10.40
2024-05-09T05:28:16.401Z,12.88
2024-05-09T05:30:46.224Z,12.07
2024-05-09T05:33:15.081Z,13.13
2024-05-09T05:35:47.976Z,16.35
2024-05-09T05:38:15.451Z,13.35
2024-05-09T05:40:47.818Z,15.10
2024-05-09T05:43:18.112Z,12.07
2024-05-09T05:45:47.994Z,14.13
2024-05-09T05:48:17.305Z,15.43
2024-05-09T05:50:49.978Z,15.65
2024-05-09T05:53:20.042Z,14.30
2024-05-09T05:55:55.514Z,17.50
2024-05-09T05:58:22.629Z,16.48
2024-05-09T06:00:53.662Z,16.00
2024-05-09T06:03:20.896Z,17.45
2024-05-09T06:05:50.662Z,32.50
2024-05-09T06:08:17.744Z,20.50
2024-05-09T06:10:47.532Z,15.23
2024-05-09T06:13:17.193Z,17.65
2024-05-09T06:15:46.837Z,17.35
2024-05-09T06:18:14.355Z,17.67
2024-05-09T06:20:44.740Z,21.25
2024-05-09T06:23:12.392Z,19.00
2024-05-09T06:25:42.848Z,22.25
2024-05-09T06:28:09.940Z,22.65
2024-05-09T06:30:43.205Z,20.52
2024-05-09T06:33:13.551Z,25.17
2024-05-09T06:35:45.417Z,18.17
2024-05-09T06:38:12.704Z,21.17
2024-05-09T06:40:44.266Z,20.60
2024-05-09T06:43:16.854Z,23.17
2024-05-09T06:45:52.776Z,22.35
2024-05-09T06:48:21.038Z,24.13
2024-05-09T06:50:51.545Z,30.42
2024-05-09T06:53:21.783Z,27.33
2024-05-09T06:55:51.629Z,21.35
2024-05-09T06:58:18.706Z,18.58
2024-05-09T07:00:51.148Z,20.30
2024-05-09T07:03:19.420Z,19.77
2024-05-09T07:05:50.143Z,18.73
2024-05-09T07:08:17.329Z,19.73
2024-05-09T07:10:47.713Z,17.25
2024-05-09T07:13:15.656Z,20.02
2024-05-09T07:15:46.044Z,16.13
2024-05-09T07:18:18.294Z,18.17
2024-05-09T07:20:50.150Z,16.23
2024-05-09T07:23:18.289Z,16.83
2024-05-09T07:25:48.276Z,18.75
2024-05-09T07:28:16.505Z,22.85
2024-05-09T07:30:46.500Z,22.58
2024-05-09T07:33:20.312Z,19.83
2024-05-09T07:35:51.694Z,17.40
2024-05-09T07:38:18.981Z,22.05
2024-05-09T07:40:48.926Z,15.98
2024-05-09T07:43:16.413Z,16.60
2024-05-09T07:45:53.034Z,19.65
2024-05-09T07:53:39.863Z,18.20
2024-05-09T07:56:14.479Z,19.08
2024-05-09T07:58:43.404Z,18.88
2024-05-09T08:01:13.140Z,17.20
2024-05-09T08:03:43.105Z,18.33
2024-05-09T08:06:12.765Z,20.80
2024-05-09T08:08:39.758Z,17.52
2024-05-09T08:11:09.446Z,17.05
2024-05-09T08:13:36.400Z,20.98
2024-05-09T08:16:06.250Z,17.77
2024-05-09T08:18:33.523Z,24.90
2024-05-09T08:21:07.485Z,18.42
2024-05-09T08:23:34.499Z,17.35
2024-05-09T08:26:04.038Z,19.52
2024-05-09T08:28:30.995Z,16.90
2024-05-09T08:31:03.181Z,16.02
2024-05-09T08:33:32.583Z,15.98
2024-05-09T08:36:04.956Z,15.73
2024-05-09T08:38:31.845Z,16.00
2024-05-09T08:41:02.091Z,16.73
2024-05-09T08:43:30.136Z,13.95
2024-05-09T08:46:01.591Z,13.55
2024-05-09T08:48:30.446Z,16.80
2024-05-09T08:51:01.534Z,15.27
2024-05-09T08:53:31.214Z,14.25
2024-05-09T08:56:04.166Z,15.13
2024-05-09T08:58:32.740Z,15.57
2024-05-09T09:01:05.230Z,16.17
2024-05-09T09:03:33.792Z,16.70
2024-05-09T09:06:06.504Z,13.32
2024-05-09T09:08:38.549Z,12.35
2024-05-09T09:11:08.397Z,12.73
2024-05-09T09:13:35.362Z,12.48
2024-05-09T09:16:05.037Z,13.95
2024-05-09T09:18:33.213Z,12.27
2024-05-09T09:21:03.334Z,15.20
2024-05-09T09:23:30.786Z,13.65
2024-05-09T09:26:04.132Z,18.05
2024-05-09T09:28:31.195Z,13.43
2024-05-09T09:31:05.059Z,13.30
2024-05-09T09:33:32.791Z,13.80
2024-05-09T09:36:03.442Z,14.55
2024-05-09T09:38:31.692Z,13.93
2024-05-09T09:41:08.814Z,15.35
2024-05-09T09:43:36.522Z,13.68
2024-05-09T09:46:09.744Z,14.63
2024-05-09T09:48:40.869Z,17.15
2024-05-09T09:51:10.943Z,17.25
2024-05-09T09:53:38.627Z,13.35
2024-05-09T09:56:13.001Z,14.35
2024-05-09T09:58:42.346Z,14.43
2024-05-09T10:01:12.118Z,15.93
2024-05-09T10:03:39.276Z,13.30
2024-05-09T10:06:10.414Z,13.00
2024-05-09T10:08:38.084Z,13.18
2024-05-09T10:11:10.564Z,15.85
2024-05-09T10:13:37.693Z,15.07
2024-05-09T10:16:12.377Z,15.32
2024-05-09T10:18:40.421Z,13.60
2024-05-09T10:21:20.196Z,14.73
2024-05-09T10:23:57.569Z,16.85
2024-05-09T10:26:38.874Z,15.30
2024-05-09T10:29:13.023Z,15.55
2024-05-09T10:31:45.701Z,17.65
2024-05-09T10:34:20.198Z,14.52
2024-05-09T10:36:54.562Z,19.38
2024-05-09T10:39:22.138Z,14.43
2024-05-09T10:41:54.427Z,13.38
2024-05-09T10:44:21.863Z,19.13
2024-05-09T10:46:53.768Z,18.58
2024-05-09T10:49:21.251Z,15.65
2024-05-09T10:51:52.021Z,16.92
2024-05-09T10:54:19.034Z,16.75
2024-05-09T10:56:48.566Z,15.95
2024-05-09T10:59:18.163Z,16.33
2024-05-09T11:01:47.766Z,16.45
2024-05-09T11:04:15.059Z,17.83
2024-05-09T11:06:45.060Z,13.93
2024-05-09T11:09:12.585Z,13.68
2024-05-09T11:11:42.540Z,12.05
2024-05-09T11:14:13.132Z,13.07
2024-05-09T11:16:45.323Z,18.15
2024-05-09T11:19:13.261Z,17.02
2024-05-09T11:21:45.757Z,15.90
2024-05-09T11:24:12.908Z,14.95
2024-05-09T11:26:42.572Z,15.52
2024-05-09T11:29:09.599Z,15.07
2024-05-09T11:31:50.606Z,15.90
2024-05-09T11:34:17.599Z,18.08
2024-05-09T11:36:47.602Z,14.60
2024-05-09T11:39:14.898Z,14.48
2024-05-09T11:41:46.788Z,15.98
2024-05-09T11:44:13.803Z,15.02
2024-05-09T11:46:44.215Z,16.77
2024-05-09T11:49:14.074Z,16.30
2024-05-09T11:51:43.821Z,14.35
2024-05-09T11:54:10.809Z,18.50
2024-05-09T11:56:40.542Z,14.90
2024-05-09T11:59:07.444Z,15.13
2024-05-09T12:01:37.119Z,17.15
2024-05-09T12:04:04.611Z,19.98
2024-05-09T12:06:37.244Z,18.27
2024-05-09T12:09:04.564Z,20.13
2024-05-09T12:11:34.320Z,18.23
2024-05-09T12:14:01.306Z,21.00
2024-05-09T12:16:31.161Z,22.30
2024-05-09T12:18:58.433Z,19.63
2024-05-09T12:21:28.189Z,20.42
2024-05-09T12:23:57.996Z,17.60
2024-05-09T12:26:27.728Z,19.55
2024-05-09T12:28:54.693Z,19.52
2024-05-09T12:31:24.413Z,18.33
2024-05-09T12:33:51.732Z,20.42
2024-05-09T12:36:21.395Z,20.27
2024-05-09T12:38:50.013Z,19.67
2024-05-09T12:41:22.407Z,22.23
2024-05-09T12:43:49.710Z,21.30
2024-05-09T12:46:20.483Z,21.23
2024-05-09T12:48:47.835Z,23.25
2024-05-09T12:51:17.630Z,20.40
2024-05-09T12:53:44.579Z,20.35
2024-05-09T12:56:14.171Z,21.88
2024-05-09T12:58:43.885Z,25.67
2024-05-09T13:01:13.553Z,23.58
2024-05-09T13:03:40.761Z,20.42
2024-05-09T13:06:10.892Z,22.67
2024-05-09T13:08:37.967Z,24.42
2024-05-09T13:11:07.874Z,20.90
2024-05-09T13:13:34.815Z,19.35
2024-05-09T13:16:07.737Z,21.73
2024-05-09T13:18:36.425Z,23.65
2024-05-09T13:21:06.123Z,23.23
2024-05-09T13:23:33.161Z,23.17
2024-05-09T13:26:02.879Z,23.15
2024-05-09T13:28:32.314Z,22.52
2024-05-09T13:31:02.228Z,20.05
2024-05-09T13:33:35.816Z,21.58
2024-05-09T13:38:32.211Z,22.15
2024-05-09T13:41:01.883Z,23.75
2024-05-09T13:43:28.879Z,24.13
2024-05-09T13:45:59.114Z,25.55
2024-05-09T13:48:26.167Z,20.38
2024-05-09T13:50:58.740Z,23.23
2024-05-09T13:53:25.716Z,26.27
2024-05-09T13:55:55.521Z,25.00
2024-05-09T13:58:23.612Z,23.23
2024-05-09T14:00:53.564Z,25.48
2024-05-09T14:03:21.320Z,25.13
2024-05-09T14:05:52.454Z,25.60
2024-05-09T14:08:22.925Z,25.60
2024-05-09T14:10:53.694Z,23.48
2024-05-09T14:13:20.961Z,22.92
2024-05-09T14:15:51.003Z,24.05
2024-05-09T14:18:18.242Z,24.00
2024-05-09T14:20:47.844Z,23.10
2024-05-09T14:23:15.099Z,21.60
2024-05-09T14:25:51.187Z,22.27
2024-05-09T14:28:19.885Z,24.23
2024-05-09T14:30:49.615Z,36.60
2024-05-09T14:33:22.387Z,23.13
2024-05-09T14:35:52.258Z,24.37
2024-05-09T14:38:19.244Z,26.45
2024-05-09T14:40:51.806Z,21.42
2024-05-09T14:43:19.149Z,24.20
2024-05-09T14:45:49.338Z,24.65
2024-05-09T14:48:16.638Z,24.77
2024-05-09T14:50:46.350Z,22.52
2024-05-09T14:53:14.081Z,26.02
2024-05-09T14:55:44.385Z,22.95
2024-05-09T14:58:14.155Z,21.55
2024-05-09T15:00:48.511Z,23.58
2024-05-09T15:03:18.491Z,26.48
2024-05-09T15:05:49.446Z,24.95
2024-05-09T15:08:17.510Z,24.90
2024-05-09T15:10:49.858Z,22.92
2024-05-09T15:13:21.092Z,24.58
2024-05-09T15:15:51.099Z,25.17
2024-05-09T15:18:21.072Z,28.30
2024-05-09T15:20:51.014Z,25.38
2024-05-09T15:23:18.008Z,24.77
2024-05-09T15:25:47.819Z,24.45
2024-05-09T15:28:15.088Z,25.65
2024-05-09T15:30:48.142Z,27.65
2024-05-09T15:33:15.731Z,23.60
2024-05-09T15:35:46.859Z,25.02
2024-05-09T15:38:15.318Z,23.70
2024-05-09T15:40:45.035Z,24.20
2024-05-09T15:43:12.400Z,25.50
2024-05-09T15:45:42.299Z,27.60
2024-05-09T15:48:12.178Z,26.65
2024-05-09T15:50:42.823Z,23.83
2024-05-09T15:53:12.086Z,22.83
2024-05-09T15:55:42.725Z,31.58
2024-05-09T15:58:10.452Z,24.88
2024-05-09T16:00:42.696Z,25.98
2024-05-09T16:05:47.186Z,21.48
2024-05-09T16:08:30.625Z,18.88
2024-05-09T16:11:00.567Z,19.70
2024-05-09T16:13:27.886Z,19.83
2024-05-09T16:15:57.678Z,20.13
2024-05-09T16:18:27.389Z,22.48
2024-05-09T16:21:00.406Z,21.75
2024-05-09T16:23:27.607Z,21.30
2024-05-09T16:25:57.418Z,20.98
2024-05-09T16:28:26.864Z,20.50
2024-05-09T16:30:56.907Z,21.83
2024-05-09T16:33:26.729Z,20.50
2024-05-09T16:35:56.498Z,18.10
2024-05-09T16:38:23.489Z,21.08
2024-05-09T16:40:53.303Z,22.30
2024-05-09T16:43:20.413Z,21.95
2024-05-09T16:45:50.347Z,22.38
2024-05-09T16:48:17.623Z,20.27
2024-05-09T16:50:49.849Z,24.65
2024-05-09T16:53:16.840Z,29.15
2024-05-09T16:55:46.439Z,23.40
2024-05-09T16:58:13.742Z,21.90
2024-05-09T17:00:44.478Z,24.00
2024-05-09T17:03:14.819Z,22.83
2024-05-09T17:05:47.158Z,24.38
2024-05-09T17:08:18.281Z,21.58
2024-05-09T17:10:49.008Z,21.55
2024-05-09T17:13:22.621Z,23.00
2024-05-09T17:15:52.531Z,22.17
2024-05-09T17:18:22.471Z,22.88
2024-05-09T17:20:50.371Z,20.60
2024-05-09T17:23:22.771Z,21.35
2024-05-09T17:25:49.829Z,23.00
2024-05-09T17:28:19.791Z,22.73
2024-05-09T17:30:46.931Z,21.45
2024-05-09T17:33:16.741Z,20.88
2024-05-09T17:35:50.318Z,20.45
2024-05-09T17:40:52.039Z,21.58
2024-05-09T17:43:22.045Z,22.35
2024-05-09T17:45:49.190Z,22.90
2024-05-09T17:48:20.177Z,25.40
2024-05-09T17:50:47.368Z,18.98
2024-05-09T17:53:16.942Z,20.63
2024-05-09T17:55:48.246Z,24.77
2024-05-09T17:58:18.079Z,18.92
2024-05-09T18:00:48.355Z,19.55
2024-05-09T18:03:18.063Z,20.25
2024-05-09T18:05:45.555Z,21.13
2024-05-09T18:08:15.634Z,19.23
2024-05-09T18:10:42.934Z,20.23
2024-05-09T18:13:15.893Z,19.55
2024-05-09T18:15:43.671Z,16.93
2024-05-09T18:18:17.745Z,18.65
2024-05-09T18:20:46.202Z,18.25
2024-05-09T18:23:18.116Z,16.02
2024-05-09T18:25:46.295Z,18.75
2024-05-09T18:28:19.162Z,17.90
2024-05-09T18:30:46.409Z,18.23
2024-05-09T18:33:16.531Z,17.05
2024-05-09T18:35:44.747Z,17.60
2024-05-09T18:38:14.627Z,16.95
2024-05-09T18:40:44.906Z,15.70
2024-05-09T18:43:26.202Z,18.50
2024-05-09T18:48:28.477Z,18.50
2024-05-09T18:50:55.614Z,16.60
2024-05-09T18:53:25.285Z,18.48
2024-05-09T18:55:52.262Z,20.33
2024-05-09T18:58:27.068Z,17.95
2024-05-09T19:00:55.591Z,17.67
2024-05-09T19:03:26.404Z,17.17
2024-05-09T19:05:53.704Z,16.20
2024-05-09T19:08:23.362Z,16.45
2024-05-09T19:10:52.584Z,14.88
2024-05-09T19:13:25.319Z,16.50
2024-05-09T19:15:52.510Z,15.90
2024-05-09T19:18:22.295Z,17.75
2024-05-09T19:20:49.523Z,16.90
2024-05-09T19:23:19.102Z,16.58
2024-05-09T19:25:46.102Z,18.05
2024-05-09T19:28:15.768Z,18.73
2024-05-09T19:30:45.563Z,17.65
2024-05-09T19:33:15.304Z,16.40
2024-05-09T19:35:42.589Z,17.40
2024-05-09T19:38:12.491Z,17.80
2024-05-09T19:40:39.578Z,16.52
2024-05-09T19:43:09.571Z,18.10
2024-05-09T19:45:39.846Z,16.60
2024-05-09T19:48:12.591Z,16.88
2024-05-09T19:50:43.412Z,17.60
2024-05-09T19:53:14.967Z,17.00
2024-05-09T19:55:42.255Z,16.50
2024-05-09T19:58:13.354Z,19.27
2024-05-09T20:00:42.841Z,19.10
2024-05-09T20:03:17.079Z,19.92
2024-05-09T20:05:46.501Z,18.02
2024-05-09T20:08:16.904Z,18.27
2024-05-09T20:10:44.223Z,20.55
2024-05-09T20:13:13.998Z,17.58
2024-05-09T20:15:42.106Z,22.15
2024-05-09T20:18:12.012Z,37.60
2024-05-09T20:20:43.906Z,19.08
2024-05-09T20:23:14.860Z,23.63
2024-05-09T20:25:42.317Z,19.08
2024-05-09T20:28:12.056Z,18.08
2024-05-09T20:30:39.252Z,19.73
2024-05-09T20:33:09.975Z,15.77
2024-05-09T20:35:37.604Z,20.92
2024-05-09T20:38:09.951Z,21.00
2024-05-09T20:40:39.070Z,18.38
2024-05-09T20:43:10.844Z,18.02
2024-05-09T20:45:39.017Z,18.88
2024-05-09T20:48:10.730Z,19.02
2024-05-09T20:50:41.096Z,20.35
2024-05-09T20:53:15.615Z,18.02
2024-05-09T20:55:43.623Z,18.20
2024-05-09T20:58:13.784Z,19.48
2024-05-09T21:00:44.420Z,21.65
2024-05-09T21:03:17.113Z,19.90
2024-05-09T21:05:45.330Z,21.13
2024-05-09T21:08:17.924Z,18.85
2024-05-09T21:10:47.398Z,26.65
2024-05-09T21:13:17.338Z,25.27
2024-05-09T21:15:44.443Z,22.65
2024-05-09T21:18:14.190Z,23.25
2024-05-09T21:20:41.326Z,26.83
2024-05-09T21:23:10.966Z,22.20
2024-05-09T21:25:40.731Z,23.27
2024-05-09T21:28:10.551Z,22.98
2024-05-09T21:30:41.837Z,25.17
2024-05-09T21:33:14.719Z,25.88
2024-05-09T21:35:42.462Z,27.05
2024-05-09T21:38:13.917Z,25.83
2024-05-09T21:40:46.781Z,24.38
2024-05-09T21:43:14.503Z,28.58
2024-05-09T21:45:44.601Z,23.48
2024-05-09T21:48:12.875Z,23.73
2024-05-09T21:50:42.936Z,25.08
2024-05-09T21:53:10.861Z,26.13
2024-05-09T21:55:46.281Z,26.52
2024-05-09T21:58:14.298Z,24.85
2024-05-09T22:00:46.494Z,25.63
2024-05-09T22:03:14.365Z,28.90
2024-05-09T22:05:45.142Z,27.00
2024-05-09T22:08:12.614Z,28.02
2024-05-09T22:10:42.360Z,27.63
2024-05-09T22:13:12.299Z,27.83
2024-05-09T22:15:42.599Z,29.35
2024-05-09T22:18:11.030Z,29.50
2024-05-09T22:20:45.254Z,32.22
2024-05-09T22:23:13.671Z,28.45
2024-05-09T22:25:43.474Z,31.33
2024-05-09T22:28:15.354Z,30.25
2024-05-09T22:30:47.061Z,30.23
2024-05-09T22:33:15.562Z,32.60
2024-05-09T22:35:45.457Z,29.23
2024-05-09T22:38:12.526Z,31.17
2024-05-09T22:40:47.721Z,30.80
2024-05-09T22:43:21.373Z,34.40
2024-05-09T22:45:53.309Z,34.53
2024-05-09T22:48:20.681Z,33.15
2024-05-09T22:50:50.432Z,34.42
2024-05-09T22:53:18.039Z,30.17
2024-05-09T22:55:47.670Z,30.13
2024-05-09T22:58:14.636Z,31.08
2024-05-09T23:00:47.225Z,36.60
2024-05-09T23:03:15.989Z,30.92
2024-05-09T23:05:45.659Z,33.00
2024-05-09T23:08:13.657Z,40.13
2024-05-09T23:10:43.246Z,34.90
2024-05-09T23:13:10.453Z,36.85
2024-05-09T23:15:40.169Z,34.75
2024-05-09T23:18:10.029Z,35.70
2024-05-09T23:20:40.463Z,36.03
2024-05-09T23:23:07.842Z,38.25
2024-05-09T23:25:37.767Z,37.55
2024-05-09T23:28:05.607Z,37.67
2024-05-09T23:30:39.666Z,39.92
2024-05-09T23:33:12.226Z,36.30
2024-05-09T23:35:44.616Z,42.88
2024-05-09T23:38:11.909Z,37.83
2024-05-09T23:40:42.711Z,40.95
2024-05-09T23:43:11.151Z,44.30
2024-05-09T23:45:41.626Z,45.05
2024-05-09T23:48:12.025Z,39.72
2024-05-09T23:50:41.950Z,42.20
2024-05-09T23:53:10.166Z,44.65
2024-05-09T23:55:40.595Z,44.67
2024-05-09T23:58:08.297Z,44.40
